This is the latest recevied weather packets stored in our database for station/object N3MFL. If no packets are shown the sender has not sent any weather packets the latest 1 day(s).
| Time | Temp. | Humidity | Pressure | Rain* | Wind** | Luminosity | Snow |
|---|---|---|---|---|---|---|---|
| 1778029895 | 15.56° C | 71% | 1012.4 hPa | 0 mm | - | 0 W/m² | - |
| 1778029594 | 15.56° C | 71% | 1012.3 hPa | 0 mm | - | 0 W/m² | - |
| 1778029291 | 15° C | 72% | 1012.3 hPa | 0 mm | - | 0 W/m² | - |
| 1778028988 | 15.56° C | 71% | 1012.3 hPa | 0 mm | - | 0 W/m² | - |
| 1778028684 | 15° C | 72% | 1012.2 hPa | 0 mm | - | 0 W/m² | - |
| 1778028381 | 15° C | 72% | 1012.2 hPa | 0 mm | - | 0 W/m² | - |
| 1778028078 | 15° C | 73% | 1012.2 hPa | 0 mm | - | 0 W/m² | - |
| 1778027470 | 14.44° C | 75% | 1012 hPa | 0 mm | - | 0 W/m² | - |
| 1778026559 | 14.44° C | 76% | 1011.7 hPa | 0 mm | - | 0 W/m² | - |
| 1778026256 | 14.44° C | 75% | 1011.9 hPa | 0 mm | - | 0 W/m² | - |
| 1778025651 | 14.44° C | 74% | 1011.5 hPa | 0 mm | - | 0 W/m² | - |
| 1778023834 | 15° C | 72% | 1011 hPa | 0 mm | - | 11 W/m² | - |
| 1778022018 | 15.56° C | 71% | 1010.4 hPa | 0 mm | - | 42 W/m² | - |
| 1778021715 | 15.56° C | 72% | 1010.5 hPa | 0 mm | - | 46 W/m² | - |
| 1778020198 | 15.56° C | 72% | 1010.6 hPa | 0 mm | - | 61 W/m² | - |
| 1778019590 | 16.11° C | 71% | 1010.5 hPa | 0 mm | - | 60 W/m² | - |
| 1778019288 | 16.11° C | 71% | 1010.4 hPa | 0 mm | - | 76 W/m² | - |
| 1778018985 | 16.11° C | 70% | 1010.6 hPa | 0 mm | - | 74 W/m² | - |
| 1778018682 | 16.11° C | 69% | 1010.5 hPa | 0 mm | - | 82 W/m² | - |
| 1778017775 | 16.67° C | 69% | 1010.3 hPa | 0 mm | - | 120 W/m² | - |
| 1778015048 | 18.89° C | 64% | 1010.1 hPa | 0 mm | - | 303 W/m² | - |
* Rain latest hour (hover to see other rain measurements)
** Current wind speed in m/s (hover to see current wind gust speed)